sensor_id;sensor_type;location;lat;lon;timestamp;pressure;altitude;pressure_sealevel;temperature;humidity
18850;BME280;4989;48.772;9.154;2023-05-02T00:04:15;98075.47;;;14.58;86.47
18850;BME280;4989;48.772;9.154;2023-05-02T00:09:18;98081.72;;;14.58;89.34
18850;BME280;4989;48.772;9.154;2023-05-02T00:14:20;98084.34;;;14.49;87.60
18850;BME280;4989;48.772;9.154;2023-05-02T00:19:23;98082.97;;;13.75;92.72
18850;BME280;4989;48.772;9.154;2023-05-02T00:24:25;98078.13;;;13.92;94.54
18850;BME280;4989;48.772;9.154;2023-05-02T00:29:27;98072.56;;;13.83;92.40
18850;BME280;4989;48.772;9.154;2023-05-02T00:34:30;98078.25;;;13.75;98.24
18850;BME280;4989;48.772;9.154;2023-05-02T00:39:35;98075.47;;;14.01;93.86
18850;BME280;4989;48.772;9.154;2023-05-02T00:44:38;98079.19;;;13.47;91.65
18850;BME280;4989;48.772;9.154;2023-05-02T00:49:41;98077.69;;;12.78;96.46
18850;BME280;4989;48.772;9.154;2023-05-02T00:54:43;98074.75;;;12.86;100.00
18850;BME280;4989;48.772;9.154;2023-05-02T00:59:46;98077.94;;;12.84;96.78
18850;BME280;4989;48.772;9.154;2023-05-02T01:05:14;98079.66;;;12.78;98.68
18850;BME280;4989;48.772;9.154;2023-05-02T01:10:47;98077.13;;;12.71;99.13
18850;BME280;4989;48.772;9.154;2023-05-02T01:15:55;98090.72;;;13.00;100.00
18850;BME280;4989;48.772;9.154;2023-05-02T01:21:04;98097.09;;;13.48;96.43
18850;BME280;4989;48.772;9.154;2023-05-02T01:31:37;98090.97;;;13.57;94.04
18850;BME280;4989;48.772;9.154;2023-05-02T01:36:46;98093.59;;;13.60;92.16
18850;BME280;4989;48.772;9.154;2023-05-02T01:41:53;98091.41;;;13.29;94.04
18850;BME280;4989;48.772;9.154;2023-05-02T01:46:59;98094.75;;;13.21;94.72
18850;BME280;4989;48.772;9.154;2023-05-02T01:52:06;98094.88;;;13.04;96.05
18850;BME280;4989;48.772;9.154;2023-05-02T01:57:12;98093.22;;;13.07;96.07
18850;BME280;4989;48.772;9.154;2023-05-02T02:02:17;98098.91;;;13.13;95.65
18850;BME280;4989;48.772;9.154;2023-05-02T02:07:21;98107.41;;;13.02;94.36
18850;BME280;4989;48.772;9.154;2023-05-02T02:12:34;98101.72;;;12.83;94.93
18850;BME280;4989;48.772;9.154;2023-05-02T02:17:46;98114.88;;;12.72;95.33
18850;BME280;4989;48.772;9.154;2023-05-02T02:22:50;98111.88;;;12.54;96.98
18850;BME280;4989;48.772;9.154;2023-05-02T02:27:55;98126.53;;;12.14;100.00
18850;BME280;4989;48.772;9.154;2023-05-02T02:32:58;98133.94;;;11.65;100.00
18850;BME280;4989;48.772;9.154;2023-05-02T02:38:33;98137.75;;;11.51;100.00
18850;BME280;4989;48.772;9.154;2023-05-02T02:49:32;98143.13;;;12.04;100.00
18850;BME280;4989;48.772;9.154;2023-05-02T02:55:06;98143.50;;;12.51;100.00
18850;BME280;4989;48.772;9.154;2023-05-02T03:00:18;98158.41;;;13.05;100.00
18850;BME280;4989;48.772;9.154;2023-05-02T03:05:22;98171.78;;;13.28;95.24
18850;BME280;4989;48.772;9.154;2023-05-02T03:10:25;98189.91;;;12.02;100.00
18850;BME280;4989;48.772;9.154;2023-05-02T03:21:01;98189.16;;;11.29;100.00
18850;BME280;4989;48.772;9.154;2023-05-02T03:26:04;98204.50;;;11.39;100.00
18850;BME280;4989;48.772;9.154;2023-05-02T03:31:09;98196.88;;;11.67;100.00
18850;BME280;4989;48.772;9.154;2023-05-02T03:36:14;98210.56;;;12.16;100.00
18850;BME280;4989;48.772;9.154;2023-05-02T03:41:17;98213.13;;;12.40;100.00
18850;BME280;4989;48.772;9.154;2023-05-02T03:46:20;98226.16;;;12.15;100.00
18850;BME280;4989;48.772;9.154;2023-05-02T03:51:23;98232.38;;;12.16;100.00
18850;BME280;4989;48.772;9.154;2023-05-02T03:56:29;98235.78;;;12.36;100.00
18850;BME280;4989;48.772;9.154;2023-05-02T04:01:56;98240.53;;;12.00;100.00
18850;BME280;4989;48.772;9.154;2023-05-02T04:07:11;98246.59;;;12.40;100.00
18850;BME280;4989;48.772;9.154;2023-05-02T04:12:23;98245.66;;;12.47;100.00
18850;BME280;4989;48.772;9.154;2023-05-02T04:17:27;98251.72;;;12.38;100.00
18850;BME280;4989;48.772;9.154;2023-05-02T04:22:29;98255.72;;;12.50;100.00
18850;BME280;4989;48.772;9.154;2023-05-02T04:27:36;98252.34;;;12.58;100.00
18850;BME280;4989;48.772;9.154;2023-05-02T04:32:42;98257.41;;;12.27;100.00
18850;BME280;4989;48.772;9.154;2023-05-02T04:37:46;98262.50;;;12.25;100.00
18850;BME280;4989;48.772;9.154;2023-05-02T04:42:50;98261.16;;;12.17;100.00
18850;BME280;4989;48.772;9.154;2023-05-02T04:47:55;98263.22;;;12.29;100.00
18850;BME280;4989;48.772;9.154;2023-05-02T04:52:58;98273.09;;;12.56;100.00
18850;BME280;4989;48.772;9.154;2023-05-02T04:58:01;98265.94;;;12.29;100.00
18850;BME280;4989;48.772;9.154;2023-05-02T05:03:04;98270.38;;;12.23;100.00
18850;BME280;4989;48.772;9.154;2023-05-02T05:08:07;98277.44;;;12.53;99.81
18850;BME280;4989;48.772;9.154;2023-05-02T05:13:11;98279.59;;;12.91;100.00
18850;BME280;4989;48.772;9.154;2023-05-02T05:18:16;98288.56;;;13.50;94.33
18850;BME280;4989;48.772;9.154;2023-05-02T05:23:19;98309.31;;;14.02;93.05
18850;BME280;4989;48.772;9.154;2023-05-02T05:28:21;98320.25;;;14.53;95.15
18850;BME280;4989;48.772;9.154;2023-05-02T05:33:24;98328.53;;;14.37;87.09
18850;BME280;4989;48.772;9.154;2023-05-02T05:38:26;98334.38;;;13.59;88.70
18850;BME280;4989;48.772;9.154;2023-05-02T05:43:29;98343.19;;;14.30;92.29
18850;BME280;4989;48.772;9.154;2023-05-02T05:48:33;98346.84;;;15.00;89.72
18850;BME280;4989;48.772;9.154;2023-05-02T05:53:36;98356.28;;;14.99;88.15
18850;BME280;4989;48.772;9.154;2023-05-02T05:58:40;98357.59;;;15.07;90.81
18850;BME280;4989;48.772;9.154;2023-05-02T06:03:47;98363.44;;;15.53;88.18
18850;BME280;4989;48.772;9.154;2023-05-02T06:08:51;98374.06;;;15.51;86.85
18850;BME280;4989;48.772;9.154;2023-05-02T06:13:54;98377.75;;;15.70;86.23
18850;BME280;4989;48.772;9.154;2023-05-02T06:18:57;98377.47;;;15.99;86.27
18850;BME280;4989;48.772;9.154;2023-05-02T06:24:00;98385.09;;;16.26;82.99
18850;BME280;4989;48.772;9.154;2023-05-02T06:29:02;98396.31;;;16.51;85.67
18850;BME280;4989;48.772;9.154;2023-05-02T06:34:04;98404.94;;;16.71;78.99
18850;BME280;4989;48.772;9.154;2023-05-02T06:39:07;98406.19;;;16.79;80.80
18850;BME280;4989;48.772;9.154;2023-05-02T06:44:09;98403.78;;;16.81;82.95
18850;BME280;4989;48.772;9.154;2023-05-02T06:49:11;98399.81;;;16.82;77.84
18850;BME280;4989;48.772;9.154;2023-05-02T06:54:14;98414.22;;;17.05;81.83
18850;BME280;4989;48.772;9.154;2023-05-02T06:59:16;98416.38;;;17.19;80.95
18850;BME280;4989;48.772;9.154;2023-05-02T07:04:19;98420.50;;;17.24;75.36
18850;BME280;4989;48.772;9.154;2023-05-02T07:09:21;98432.88;;;17.19;78.25
18850;BME280;4989;48.772;9.154;2023-05-02T07:14:23;98435.63;;;17.28;75.20
18850;BME280;4989;48.772;9.154;2023-05-02T07:19:26;98443.56;;;17.35;79.21
18850;BME280;4989;48.772;9.154;2023-05-02T07:24:28;98448.75;;;17.33;74.71
18850;BME280;4989;48.772;9.154;2023-05-02T07:29:30;98448.50;;;16.60;73.47
18850;BME280;4989;48.772;9.154;2023-05-02T07:34:33;98452.78;;;16.08;76.84
18850;BME280;4989;48.772;9.154;2023-05-02T07:39:35;98454.81;;;15.94;78.91
18850;BME280;4989;48.772;9.154;2023-05-02T07:44:37;98452.53;;;15.71;77.90
18850;BME280;4989;48.772;9.154;2023-05-02T07:49:39;98457.03;;;15.52;78.02
18850;BME280;4989;48.772;9.154;2023-05-02T07:54:41;98460.78;;;15.45;78.67
18850;BME280;4989;48.772;9.154;2023-05-02T07:59:44;98460.72;;;15.58;78.79
18850;BME280;4989;48.772;9.154;2023-05-02T08:04:46;98478.38;;;15.70;79.43
18850;BME280;4989;48.772;9.154;2023-05-02T08:09:49;98487.97;;;15.52;78.21
18850;BME280;4989;48.772;9.154;2023-05-02T08:14:51;98496.00;;;15.34;82.24
18850;BME280;4989;48.772;9.154;2023-05-02T08:19:53;98501.47;;;15.34;80.05
18850;BME280;4989;48.772;9.154;2023-05-02T08:24:56;98503.88;;;15.06;82.17
18850;BME280;4989;48.772;9.154;2023-05-02T08:30:01;98501.66;;;15.52;82.26
18850;BME280;4989;48.772;9.154;2023-05-02T08:35:04;98506.00;;;15.63;79.24
18850;BME280;4989;48.772;9.154;2023-05-02T08:40:11;98505.31;;;15.84;80.04
18850;BME280;4989;48.772;9.154;2023-05-02T08:45:14;98509.13;;;15.39;79.88
18850;BME280;4989;48.772;9.154;2023-05-02T08:50:18;98510.81;;;16.06;77.45
18850;BME280;4989;48.772;9.154;2023-05-02T08:55:22;98508.22;;;15.68;77.29
18850;BME280;4989;48.772;9.154;2023-05-02T09:00:29;98510.44;;;15.22;80.93
18850;BME280;4989;48.772;9.154;2023-05-02T09:05:39;98516.75;;;15.70;80.11
18850;BME280;4989;48.772;9.154;2023-05-02T09:10:43;98518.34;;;16.37;75.06
18850;BME280;4989;48.772;9.154;2023-05-02T09:16:18;98522.50;;;16.85;77.33
18850;BME280;4989;48.772;9.154;2023-05-02T09:21:44;98526.34;;;17.47;74.90
18850;BME280;4989;48.772;9.154;2023-05-02T09:27:04;98532.00;;;16.06;74.82
18850;BME280;4989;48.772;9.154;2023-05-02T09:32:07;98530.97;;;16.78;77.17
18850;BME280;4989;48.772;9.154;2023-05-02T09:37:09;98523.09;;;17.98;76.39
18850;BME280;4989;48.772;9.154;2023-05-02T09:42:12;98523.81;;;19.05;68.15
18850;BME280;4989;48.772;9.154;2023-05-02T09:47:24;98521.84;;;20.26;62.51
18850;BME280;4989;48.772;9.154;2023-05-02T09:52:29;98519.31;;;19.98;67.42
18850;BME280;4989;48.772;9.154;2023-05-02T09:57:41;98512.53;;;21.88;60.94
18850;BME280;4989;48.772;9.154;2023-05-02T10:02:44;98519.16;;;22.69;55.97
18850;BME280;4989;48.772;9.154;2023-05-02T10:07:51;98530.78;;;21.39;57.26
18850;BME280;4989;48.772;9.154;2023-05-02T10:12:54;98532.34;;;20.36;64.63
18850;BME280;4989;48.772;9.154;2023-05-02T10:18:10;98538.88;;;22.51;53.66
18850;BME280;4989;48.772;9.154;2023-05-02T10:23:17;98535.28;;;24.54;49.68
18850;BME280;4989;48.772;9.154;2023-05-02T10:28:21;98532.03;;;26.03;45.67
18850;BME280;4989;48.772;9.154;2023-05-02T10:33:24;98528.69;;;26.93;45.47
18850;BME280;4989;48.772;9.154;2023-05-02T10:38:27;98527.84;;;26.33;45.53
18850;BME280;4989;48.772;9.154;2023-05-02T10:43:35;98522.09;;;27.21;41.67
18850;BME280;4989;48.772;9.154;2023-05-02T10:48:38;98517.88;;;26.43;42.33
18850;BME280;4989;48.772;9.154;2023-05-02T10:53:41;98508.50;;;23.25;49.01
18850;BME280;4989;48.772;9.154;2023-05-02T10:58:51;98514.31;;;24.70;45.16
18850;BME280;4989;48.772;9.154;2023-05-02T11:04:10;98498.91;;;22.89;51.01
18850;BME280;4989;48.772;9.154;2023-05-02T11:24:48;98499.09;;;21.40;55.33
18850;BME280;4989;48.772;9.154;2023-05-02T11:29:53;98509.47;;;21.66;56.92
18850;BME280;4989;48.772;9.154;2023-05-02T11:34:56;98503.53;;;23.41;48.86
18850;BME280;4989;48.772;9.154;2023-05-02T11:40:12;98501.78;;;25.66;45.66
18850;BME280;4989;48.772;9.154;2023-05-02T11:45:15;98498.59;;;22.81;49.60
18850;BME280;4989;48.772;9.154;2023-05-02T11:50:18;98500.84;;;21.58;55.11
18850;BME280;4989;48.772;9.154;2023-05-02T11:55:21;98494.44;;;21.93;51.90
18850;BME280;4989;48.772;9.154;2023-05-02T12:00:26;98497.91;;;21.47;55.67
18850;BME280;4989;48.772;9.154;2023-05-02T12:05:29;98506.91;;;21.27;55.13
18850;BME280;4989;48.772;9.154;2023-05-02T12:10:37;98506.84;;;22.18;52.39
18850;BME280;4989;48.772;9.154;2023-05-02T12:15:40;98489.66;;;23.89;48.51
18850;BME280;4989;48.772;9.154;2023-05-02T12:20:43;98491.25;;;24.30;45.34
18850;BME280;4989;48.772;9.154;2023-05-02T12:25:46;98499.75;;;26.25;43.11
18850;BME280;4989;48.772;9.154;2023-05-02T12:30:50;98493.56;;;27.53;40.14
18850;BME280;4989;48.772;9.154;2023-05-02T12:35:52;98500.84;;;28.05;40.01
18850;BME280;4989;48.772;9.154;2023-05-02T12:40:55;98502.34;;;26.53;43.28
18850;BME280;4989;48.772;9.154;2023-05-02T12:46:10;98505.94;;;23.16;50.15
18850;BME280;4989;48.772;9.154;2023-05-02T12:51:22;98516.31;;;25.25;46.27
18850;BME280;4989;48.772;9.154;2023-05-02T12:56:37;98506.63;;;23.54;49.17
18850;BME280;4989;48.772;9.154;2023-05-02T13:01:40;98513.06;;;22.13;51.67
18850;BME280;4989;48.772;9.154;2023-05-02T13:06:42;98518.28;;;21.64;55.12
18850;BME280;4989;48.772;9.154;2023-05-02T13:11:47;98515.59;;;21.70;54.14
18850;BME280;4989;48.772;9.154;2023-05-02T13:16:50;98527.94;;;22.15;54.31
18850;BME280;4989;48.772;9.154;2023-05-02T13:21:56;98522.47;;;21.39;56.43
18850;BME280;4989;48.772;9.154;2023-05-02T13:26:59;98523.06;;;24.23;49.63
18850;BME280;4989;48.772;9.154;2023-05-02T13:32:01;98514.97;;;24.19;44.78
18850;BME280;4989;48.772;9.154;2023-05-02T13:37:03;98503.91;;;24.31;45.58
18850;BME280;4989;48.772;9.154;2023-05-02T13:42:05;98516.06;;;22.35;50.96
18850;BME280;4989;48.772;9.154;2023-05-02T13:47:08;98506.44;;;24.40;45.44
18850;BME280;4989;48.772;9.154;2023-05-02T13:52:11;98501.69;;;25.94;43.99
18850;BME280;4989;48.772;9.154;2023-05-02T13:57:13;98493.50;;;26.08;44.04
18850;BME280;4989;48.772;9.154;2023-05-02T14:02:16;98496.06;;;25.36;44.45
18850;BME280;4989;48.772;9.154;2023-05-02T14:07:18;98494.06;;;26.00;45.01
18850;BME280;4989;48.772;9.154;2023-05-02T14:12:21;98488.47;;;24.30;47.10
18850;BME280;4989;48.772;9.154;2023-05-02T14:17:24;98496.25;;;24.03;49.18
18850;BME280;4989;48.772;9.154;2023-05-02T14:22:28;98490.78;;;25.27;44.91
18850;BME280;4989;48.772;9.154;2023-05-02T14:27:30;98499.03;;;25.55;43.45
18850;BME280;4989;48.772;9.154;2023-05-02T14:32:32;98508.69;;;24.41;47.40
18850;BME280;4989;48.772;9.154;2023-05-02T14:37:34;98506.34;;;22.46;47.64
18850;BME280;4989;48.772;9.154;2023-05-02T14:42:37;98502.53;;;21.96;50.78
18850;BME280;4989;48.772;9.154;2023-05-02T14:47:39;98503.34;;;23.07;49.32
18850;BME280;4989;48.772;9.154;2023-05-02T14:52:41;98506.06;;;22.70;51.27
18850;BME280;4989;48.772;9.154;2023-05-02T14:57:44;98506.44;;;23.20;46.40
18850;BME280;4989;48.772;9.154;2023-05-02T15:02:46;98506.78;;;23.76;44.67
18850;BME280;4989;48.772;9.154;2023-05-02T15:07:48;98506.03;;;23.39;47.04
18850;BME280;4989;48.772;9.154;2023-05-02T15:12:51;98505.72;;;22.10;52.36
18850;BME280;4989;48.772;9.154;2023-05-02T15:17:53;98520.75;;;21.27;50.15
18850;BME280;4989;48.772;9.154;2023-05-02T15:22:55;98520.25;;;22.25;48.41
18850;BME280;4989;48.772;9.154;2023-05-02T15:28:00;98525.47;;;22.70;51.68
18850;BME280;4989;48.772;9.154;2023-05-02T15:33:04;98528.59;;;22.57;45.88
18850;BME280;4989;48.772;9.154;2023-05-02T15:38:06;98525.56;;;22.08;51.77
18850;BME280;4989;48.772;9.154;2023-05-02T15:43:10;98521.38;;;22.13;50.18
18850;BME280;4989;48.772;9.154;2023-05-02T15:48:12;98520.63;;;21.71;48.88
18850;BME280;4989;48.772;9.154;2023-05-02T15:53:15;98537.78;;;21.55;50.59
18850;BME280;4989;48.772;9.154;2023-05-02T15:58:18;98533.47;;;21.19;52.70
18850;BME280;4989;48.772;9.154;2023-05-02T16:03:20;98531.97;;;21.03;57.00
18850;BME280;4989;48.772;9.154;2023-05-02T16:08:22;98530.25;;;20.91;53.32
18850;BME280;4989;48.772;9.154;2023-05-02T16:13:25;98538.66;;;20.52;54.78
18850;BME280;4989;48.772;9.154;2023-05-02T16:18:28;98540.44;;;20.40;57.11
18850;BME280;4989;48.772;9.154;2023-05-02T16:23:30;98534.13;;;20.25;60.22
18850;BME280;4989;48.772;9.154;2023-05-02T16:28:32;98540.53;;;20.31;57.40
18850;BME280;4989;48.772;9.154;2023-05-02T16:33:35;98543.38;;;20.36;55.13
18850;BME280;4989;48.772;9.154;2023-05-02T16:38:37;98545.25;;;20.16;56.00
18850;BME280;4989;48.772;9.154;2023-05-02T16:43:39;98544.19;;;20.13;53.30
18850;BME280;4989;48.772;9.154;2023-05-02T16:48:42;98539.69;;;20.01;54.91
18850;BME280;4989;48.772;9.154;2023-05-02T16:53:44;98534.38;;;19.97;55.03
18850;BME280;4989;48.772;9.154;2023-05-02T16:58:47;98544.53;;;19.91;55.91
18850;BME280;4989;48.772;9.154;2023-05-02T17:03:49;98545.41;;;19.97;51.56
18850;BME280;4989;48.772;9.154;2023-05-02T17:08:51;98542.09;;;19.84;57.28
18850;BME280;4989;48.772;9.154;2023-05-02T17:13:54;98546.34;;;19.94;58.37
18850;BME280;4989;48.772;9.154;2023-05-02T17:18:56;98550.38;;;19.84;55.43
18850;BME280;4989;48.772;9.154;2023-05-02T17:23:58;98553.97;;;19.75;51.43
18850;BME280;4989;48.772;9.154;2023-05-02T17:29:01;98553.84;;;19.70;50.36
18850;BME280;4989;48.772;9.154;2023-05-02T17:34:03;98555.09;;;19.59;51.33
18850;BME280;4989;48.772;9.154;2023-05-02T17:39:05;98559.09;;;19.58;57.44
18850;BME280;4989;48.772;9.154;2023-05-02T17:44:07;98564.75;;;19.31;49.91
18850;BME280;4989;48.772;9.154;2023-05-02T17:49:09;98565.69;;;19.28;49.50
18850;BME280;4989;48.772;9.154;2023-05-02T17:54:12;98577.63;;;19.34;54.99
18850;BME280;4989;48.772;9.154;2023-05-02T17:59:14;98587.84;;;19.33;58.08
18850;BME280;4989;48.772;9.154;2023-05-02T18:04:16;98584.38;;;19.23;55.54
18850;BME280;4989;48.772;9.154;2023-05-02T18:09:20;98594.81;;;19.19;58.68
18850;BME280;4989;48.772;9.154;2023-05-02T18:14:22;98598.81;;;19.18;58.15
18850;BME280;4989;48.772;9.154;2023-05-02T18:19:25;98612.16;;;19.02;65.26
18850;BME280;4989;48.772;9.154;2023-05-02T18:24:27;98621.81;;;18.97;58.63
18850;BME280;4989;48.772;9.154;2023-05-02T18:29:30;98636.53;;;18.85;62.46
18850;BME280;4989;48.772;9.154;2023-05-02T18:34:33;98639.00;;;18.64;58.46
18850;BME280;4989;48.772;9.154;2023-05-02T18:39:39;98645.53;;;18.39;59.63
18850;BME280;4989;48.772;9.154;2023-05-02T18:44:41;98649.03;;;18.21;59.50
18850;BME280;4989;48.772;9.154;2023-05-02T18:49:43;98650.25;;;18.11;57.41
18850;BME280;4989;48.772;9.154;2023-05-02T18:54:46;98661.53;;;17.95;59.33
18850;BME280;4989;48.772;9.154;2023-05-02T18:59:48;98665.84;;;17.65;56.41
18850;BME280;4989;48.772;9.154;2023-05-02T19:04:50;98661.72;;;17.69;59.77
18850;BME280;4989;48.772;9.154;2023-05-02T19:09:53;98680.00;;;17.54;60.58
18850;BME280;4989;48.772;9.154;2023-05-02T19:14:55;98679.94;;;17.45;59.44
18850;BME280;4989;48.772;9.154;2023-05-02T19:19:57;98677.03;;;17.39;61.53
18850;BME280;4989;48.772;9.154;2023-05-02T19:25:00;98683.97;;;17.22;59.62
18850;BME280;4989;48.772;9.154;2023-05-02T19:30:07;98695.00;;;17.09;61.91
18850;BME280;4989;48.772;9.154;2023-05-02T19:35:14;98702.47;;;17.08;61.32
18850;BME280;4989;48.772;9.154;2023-05-02T19:40:16;98710.66;;;16.99;61.91
18850;BME280;4989;48.772;9.154;2023-05-02T19:45:18;98711.69;;;16.92;61.56
18850;BME280;4989;48.772;9.154;2023-05-02T19:50:21;98724.44;;;16.86;62.39
18850;BME280;4989;48.772;9.154;2023-05-02T19:55:23;98726.19;;;16.93;62.88
18850;BME280;4989;48.772;9.154;2023-05-02T20:00:25;98727.28;;;16.96;64.13
18850;BME280;4989;48.772;9.154;2023-05-02T20:05:28;98731.94;;;16.86;63.29
18850;BME280;4989;48.772;9.154;2023-05-02T20:10:31;98738.09;;;16.77;63.24
18850;BME280;4989;48.772;9.154;2023-05-02T20:15:33;98743.50;;;16.68;63.73
18850;BME280;4989;48.772;9.154;2023-05-02T20:20:35;98746.56;;;16.57;64.90
18850;BME280;4989;48.772;9.154;2023-05-02T20:25:39;98756.38;;;16.45;64.50
18850;BME280;4989;48.772;9.154;2023-05-02T20:30:43;98767.50;;;16.29;65.21
18850;BME280;4989;48.772;9.154;2023-05-02T20:35:55;98777.69;;;16.29;66.57
18850;BME280;4989;48.772;9.154;2023-05-02T20:40:57;98775.72;;;16.29;66.98
18850;BME280;4989;48.772;9.154;2023-05-02T20:46:08;98778.88;;;16.27;66.59
18850;BME280;4989;48.772;9.154;2023-05-02T20:51:14;98769.25;;;16.23;65.99
18850;BME280;4989;48.772;9.154;2023-05-02T20:56:16;98767.63;;;16.13;65.93
18850;BME280;4989;48.772;9.154;2023-05-02T21:01:18;98764.53;;;16.11;65.98
18850;BME280;4989;48.772;9.154;2023-05-02T21:06:21;98766.41;;;16.01;66.89
18850;BME280;4989;48.772;9.154;2023-05-02T21:11:23;98761.59;;;15.92;66.34
18850;BME280;4989;48.772;9.154;2023-05-02T21:16:26;98756.84;;;15.80;66.78
18850;BME280;4989;48.772;9.154;2023-05-02T21:21:28;98767.59;;;15.74;66.73
18850;BME280;4989;48.772;9.154;2023-05-02T21:26:31;98769.28;;;15.55;67.72
18850;BME280;4989;48.772;9.154;2023-05-02T21:31:34;98773.97;;;15.42;68.11
18850;BME280;4989;48.772;9.154;2023-05-02T21:36:38;98766.38;;;15.75;68.91
18850;BME280;4989;48.772;9.154;2023-05-02T21:41:40;98764.63;;;15.82;68.26
18850;BME280;4989;48.772;9.154;2023-05-02T21:46:45;98769.56;;;15.99;66.87
18850;BME280;4989;48.772;9.154;2023-05-02T21:51:48;98760.13;;;16.26;68.83
18850;BME280;4989;48.772;9.154;2023-05-02T21:56:52;98765.41;;;16.20;67.54
18850;BME280;4989;48.772;9.154;2023-05-02T22:01:55;98766.75;;;16.16;67.22
18850;BME280;4989;48.772;9.154;2023-05-02T22:06:58;98762.47;;;16.02;68.76
18850;BME280;4989;48.772;9.154;2023-05-02T22:12:01;98764.84;;;16.00;66.64
18850;BME280;4989;48.772;9.154;2023-05-02T22:17:03;98771.78;;;16.05;69.11
18850;BME280;4989;48.772;9.154;2023-05-02T22:22:06;98776.28;;;15.86;67.50
18850;BME280;4989;48.772;9.154;2023-05-02T22:27:08;98769.81;;;15.92;70.02
18850;BME280;4989;48.772;9.154;2023-05-02T22:32:10;98781.97;;;15.91;69.69
18850;BME280;4989;48.772;9.154;2023-05-02T22:37:12;98782.72;;;16.30;72.91
18850;BME280;4989;48.772;9.154;2023-05-02T22:42:15;98771.75;;;16.56;76.52
18850;BME280;4989;48.772;9.154;2023-05-02T22:47:17;98777.41;;;16.74;72.28
18850;BME280;4989;48.772;9.154;2023-05-02T22:52:19;98780.69;;;16.69;74.34
18850;BME280;4989;48.772;9.154;2023-05-02T22:57:22;98774.78;;;16.58;73.70
18850;BME280;4989;48.772;9.154;2023-05-02T23:02:25;98775.50;;;16.49;73.70
18850;BME280;4989;48.772;9.154;2023-05-02T23:07:27;98776.38;;;16.33;70.68
18850;BME280;4989;48.772;9.154;2023-05-02T23:12:31;98787.22;;;16.37;72.42
18850;BME280;4989;48.772;9.154;2023-05-02T23:17:39;98788.31;;;16.52;77.08
18850;BME280;4989;48.772;9.154;2023-05-02T23:22:45;98790.19;;;16.42;72.82
18850;BME280;4989;48.772;9.154;2023-05-02T23:27:47;98783.16;;;16.41;72.52
18850;BME280;4989;48.772;9.154;2023-05-02T23:32:49;98788.53;;;15.68;69.77
18850;BME280;4989;48.772;9.154;2023-05-02T23:37:52;98794.47;;;15.79;70.56
18850;BME280;4989;48.772;9.154;2023-05-02T23:42:54;98797.41;;;15.85;70.18
18850;BME280;4989;48.772;9.154;2023-05-02T23:47:57;98800.22;;;15.27;73.11
18850;BME280;4989;48.772;9.154;2023-05-02T23:52:59;98801.47;;;15.39;72.79
18850;BME280;4989;48.772;9.154;2023-05-02T23:58:02;98798.34;;;15.24;74.26
